sensor_id;sensor_type;location;lat;lon;timestamp;P1;durP1;ratioP1;P2;durP2;ratioP2
70233;SDS011;57622;42.630;23.378;2022-07-22T00:01:09;7.40;;;3.55;;
70233;SDS011;57622;42.630;23.378;2022-07-22T00:03:35;11.63;;;4.13;;
70233;SDS011;57622;42.630;23.378;2022-07-22T00:06:00;8.48;;;3.70;;
70233;SDS011;57622;42.630;23.378;2022-07-22T00:08:26;10.98;;;4.20;;
70233;SDS011;57622;42.630;23.378;2022-07-22T00:10:51;10.80;;;3.65;;
70233;SDS011;57622;42.630;23.378;2022-07-22T00:13:16;9.25;;;3.63;;
70233;SDS011;57622;42.630;23.378;2022-07-22T00:15:42;16.48;;;3.90;;
70233;SDS011;57622;42.630;23.378;2022-07-22T00:18:07;9.07;;;3.70;;
70233;SDS011;57622;42.630;23.378;2022-07-22T00:20:33;10.23;;;3.97;;
70233;SDS011;57622;42.630;23.378;2022-07-22T00:22:59;8.77;;;3.95;;
70233;SDS011;57622;42.630;23.378;2022-07-22T00:25:24;8.13;;;3.85;;
70233;SDS011;57622;42.630;23.378;2022-07-22T00:27:50;7.25;;;3.50;;
70233;SDS011;57622;42.630;23.378;2022-07-22T00:30:15;10.85;;;4.20;;
70233;SDS011;57622;42.630;23.378;2022-07-22T00:32:41;9.73;;;3.83;;
70233;SDS011;57622;42.630;23.378;2022-07-22T00:35:06;9.02;;;3.70;;
70233;SDS011;57622;42.630;23.378;2022-07-22T00:37:32;10.02;;;3.80;;
70233;SDS011;57622;42.630;23.378;2022-07-22T00:39:58;8.40;;;3.78;;
70233;SDS011;57622;42.630;23.378;2022-07-22T00:42:23;9.43;;;3.85;;
70233;SDS011;57622;42.630;23.378;2022-07-22T00:44:49;10.73;;;4.00;;
70233;SDS011;57622;42.630;23.378;2022-07-22T00:47:15;8.98;;;4.05;;
70233;SDS011;57622;42.630;23.378;2022-07-22T00:49:40;10.20;;;3.72;;
70233;SDS011;57622;42.630;23.378;2022-07-22T00:52:06;10.85;;;4.10;;
70233;SDS011;57622;42.630;23.378;2022-07-22T00:54:32;7.38;;;3.58;;
70233;SDS011;57622;42.630;23.378;2022-07-22T00:56:57;8.68;;;3.85;;
70233;SDS011;57622;42.630;23.378;2022-07-22T00:59:23;8.25;;;3.80;;
70233;SDS011;57622;42.630;23.378;2022-07-22T01:01:49;10.07;;;4.13;;
70233;SDS011;57622;42.630;23.378;2022-07-22T01:04:14;11.25;;;3.80;;
70233;SDS011;57622;42.630;23.378;2022-07-22T01:06:40;10.85;;;3.95;;
70233;SDS011;57622;42.630;23.378;2022-07-22T01:09:10;12.70;;;3.88;;
70233;SDS011;57622;42.630;23.378;2022-07-22T01:11:39;9.90;;;3.92;;
70233;SDS011;57622;42.630;23.378;2022-07-22T01:14:05;9.25;;;3.90;;
70233;SDS011;57622;42.630;23.378;2022-07-22T01:16:30;10.02;;;4.05;;
70233;SDS011;57622;42.630;23.378;2022-07-22T01:18:56;8.65;;;3.80;;
70233;SDS011;57622;42.630;23.378;2022-07-22T01:21:22;8.27;;;3.95;;
70233;SDS011;57622;42.630;23.378;2022-07-22T01:23:48;9.90;;;4.10;;
70233;SDS011;57622;42.630;23.378;2022-07-22T01:26:14;10.15;;;4.18;;
70233;SDS011;57622;42.630;23.378;2022-07-22T01:28:40;8.93;;;3.85;;
70233;SDS011;57622;42.630;23.378;2022-07-22T01:31:07;9.98;;;4.30;;
70233;SDS011;57622;42.630;23.378;2022-07-22T01:33:32;8.43;;;4.18;;
70233;SDS011;57622;42.630;23.378;2022-07-22T01:35:58;9.77;;;4.20;;
70233;SDS011;57622;42.630;23.378;2022-07-22T01:38:24;11.75;;;4.50;;
70233;SDS011;57622;42.630;23.378;2022-07-22T01:40:49;10.98;;;4.13;;
70233;SDS011;57622;42.630;23.378;2022-07-22T01:43:15;12.15;;;4.55;;
70233;SDS011;57622;42.630;23.378;2022-07-22T01:45:43;10.43;;;4.43;;
70233;SDS011;57622;42.630;23.378;2022-07-22T01:48:10;9.10;;;4.35;;
70233;SDS011;57622;42.630;23.378;2022-07-22T01:50:36;9.90;;;4.30;;
70233;SDS011;57622;42.630;23.378;2022-07-22T01:53:02;13.20;;;4.22;;
70233;SDS011;57622;42.630;23.378;2022-07-22T01:55:28;9.70;;;4.50;;
70233;SDS011;57622;42.630;23.378;2022-07-22T01:57:53;10.07;;;4.20;;
70233;SDS011;57622;42.630;23.378;2022-07-22T02:00:19;10.05;;;4.35;;
70233;SDS011;57622;42.630;23.378;2022-07-22T02:02:44;9.98;;;4.30;;
70233;SDS011;57622;42.630;23.378;2022-07-22T02:05:10;9.90;;;4.35;;
70233;SDS011;57622;42.630;23.378;2022-07-22T02:07:36;8.38;;;4.18;;
70233;SDS011;57622;42.630;23.378;2022-07-22T02:10:01;9.85;;;4.43;;
70233;SDS011;57622;42.630;23.378;2022-07-22T02:12:28;11.02;;;4.43;;
70233;SDS011;57622;42.630;23.378;2022-07-22T02:14:54;11.93;;;4.78;;
70233;SDS011;57622;42.630;23.378;2022-07-22T02:17:19;12.88;;;4.50;;
70233;SDS011;57622;42.630;23.378;2022-07-22T02:19:45;10.93;;;4.20;;
70233;SDS011;57622;42.630;23.378;2022-07-22T02:22:10;8.75;;;4.40;;
70233;SDS011;57622;42.630;23.378;2022-07-22T02:24:39;11.48;;;4.25;;
70233;SDS011;57622;42.630;23.378;2022-07-22T02:27:04;10.23;;;4.53;;
70233;SDS011;57622;42.630;23.378;2022-07-22T02:29:30;10.23;;;4.43;;
70233;SDS011;57622;42.630;23.378;2022-07-22T02:31:57;10.65;;;4.30;;
70233;SDS011;57622;42.630;23.378;2022-07-22T02:34:23;8.90;;;4.32;;
70233;SDS011;57622;42.630;23.378;2022-07-22T02:36:48;8.18;;;4.30;;
70233;SDS011;57622;42.630;23.378;2022-07-22T02:39:14;12.68;;;5.03;;
70233;SDS011;57622;42.630;23.378;2022-07-22T02:41:39;9.48;;;4.40;;
70233;SDS011;57622;42.630;23.378;2022-07-22T02:44:05;9.57;;;4.38;;
70233;SDS011;57622;42.630;23.378;2022-07-22T02:46:30;10.27;;;4.78;;
70233;SDS011;57622;42.630;23.378;2022-07-22T02:48:56;13.57;;;4.78;;
70233;SDS011;57622;42.630;23.378;2022-07-22T02:51:22;9.57;;;4.30;;
70233;SDS011;57622;42.630;23.378;2022-07-22T02:53:48;14.77;;;4.40;;
70233;SDS011;57622;42.630;23.378;2022-07-22T02:56:14;10.02;;;4.40;;
70233;SDS011;57622;42.630;23.378;2022-07-22T02:58:40;12.00;;;4.45;;
70233;SDS011;57622;42.630;23.378;2022-07-22T03:01:06;10.73;;;4.80;;
70233;SDS011;57622;42.630;23.378;2022-07-22T03:03:32;12.48;;;4.72;;
70233;SDS011;57622;42.630;23.378;2022-07-22T03:05:57;10.80;;;4.88;;
70233;SDS011;57622;42.630;23.378;2022-07-22T03:08:22;10.98;;;4.53;;
70233;SDS011;57622;42.630;23.378;2022-07-22T03:10:48;12.70;;;5.15;;
70233;SDS011;57622;42.630;23.378;2022-07-22T03:13:14;10.52;;;5.07;;
70233;SDS011;57622;42.630;23.378;2022-07-22T03:15:40;10.05;;;4.40;;
70233;SDS011;57622;42.630;23.378;2022-07-22T03:18:05;8.52;;;4.20;;
70233;SDS011;57622;42.630;23.378;2022-07-22T03:20:30;9.55;;;4.45;;
70233;SDS011;57622;42.630;23.378;2022-07-22T03:22:56;11.27;;;4.70;;
70233;SDS011;57622;42.630;23.378;2022-07-22T03:25:22;18.83;;;4.55;;
70233;SDS011;57622;42.630;23.378;2022-07-22T03:27:48;11.88;;;4.15;;
70233;SDS011;57622;42.630;23.378;2022-07-22T03:30:13;12.82;;;4.70;;
70233;SDS011;57622;42.630;23.378;2022-07-22T03:32:39;9.43;;;4.47;;
70233;SDS011;57622;42.630;23.378;2022-07-22T03:35:09;10.38;;;4.55;;
70233;SDS011;57622;42.630;23.378;2022-07-22T03:37:36;9.75;;;4.68;;
70233;SDS011;57622;42.630;23.378;2022-07-22T03:40:02;12.30;;;4.95;;
70233;SDS011;57622;42.630;23.378;2022-07-22T03:42:31;12.55;;;4.53;;
70233;SDS011;57622;42.630;23.378;2022-07-22T03:44:56;9.45;;;4.78;;
70233;SDS011;57622;42.630;23.378;2022-07-22T03:47:22;10.07;;;4.93;;
70233;SDS011;57622;42.630;23.378;2022-07-22T03:49:48;11.18;;;4.60;;
70233;SDS011;57622;42.630;23.378;2022-07-22T03:52:14;11.13;;;4.75;;
70233;SDS011;57622;42.630;23.378;2022-07-22T03:54:40;10.05;;;4.93;;
70233;SDS011;57622;42.630;23.378;2022-07-22T03:57:06;9.73;;;4.60;;
70233;SDS011;57622;42.630;23.378;2022-07-22T03:59:32;9.48;;;4.70;;
70233;SDS011;57622;42.630;23.378;2022-07-22T04:01:58;15.02;;;5.35;;
70233;SDS011;57622;42.630;23.378;2022-07-22T04:04:23;9.95;;;5.05;;
70233;SDS011;57622;42.630;23.378;2022-07-22T04:06:49;12.82;;;4.35;;
70233;SDS011;57622;42.630;23.378;2022-07-22T04:09:16;8.48;;;4.07;;
70233;SDS011;57622;42.630;23.378;2022-07-22T04:11:42;16.73;;;4.70;;
70233;SDS011;57622;42.630;23.378;2022-07-22T04:14:07;12.15;;;4.47;;
70233;SDS011;57622;42.630;23.378;2022-07-22T04:16:33;11.18;;;4.57;;
70233;SDS011;57622;42.630;23.378;2022-07-22T04:19:00;10.90;;;5.03;;
70233;SDS011;57622;42.630;23.378;2022-07-22T04:21:26;10.82;;;4.88;;
70233;SDS011;57622;42.630;23.378;2022-07-22T04:23:52;11.50;;;4.90;;
70233;SDS011;57622;42.630;23.378;2022-07-22T04:26:18;8.57;;;4.20;;
70233;SDS011;57622;42.630;23.378;2022-07-22T04:28:45;11.75;;;4.70;;
70233;SDS011;57622;42.630;23.378;2022-07-22T04:31:10;11.38;;;4.88;;
70233;SDS011;57622;42.630;23.378;2022-07-22T04:33:36;11.88;;;4.50;;
70233;SDS011;57622;42.630;23.378;2022-07-22T04:36:02;9.23;;;4.95;;
70233;SDS011;57622;42.630;23.378;2022-07-22T04:38:28;12.32;;;4.50;;
70233;SDS011;57622;42.630;23.378;2022-07-22T04:40:53;9.18;;;4.60;;
70233;SDS011;57622;42.630;23.378;2022-07-22T04:43:18;12.00;;;4.65;;
70233;SDS011;57622;42.630;23.378;2022-07-22T04:45:44;9.85;;;4.65;;
70233;SDS011;57622;42.630;23.378;2022-07-22T04:48:09;13.35;;;5.10;;
70233;SDS011;57622;42.630;23.378;2022-07-22T04:50:35;15.75;;;4.90;;
70233;SDS011;57622;42.630;23.378;2022-07-22T04:53:01;10.57;;;4.93;;
70233;SDS011;57622;42.630;23.378;2022-07-22T04:55:27;9.18;;;4.95;;
70233;SDS011;57622;42.630;23.378;2022-07-22T04:57:52;10.25;;;5.28;;
70233;SDS011;57622;42.630;23.378;2022-07-22T05:00:18;11.52;;;4.90;;
70233;SDS011;57622;42.630;23.378;2022-07-22T05:02:44;13.52;;;5.00;;
70233;SDS011;57622;42.630;23.378;2022-07-22T05:05:09;10.23;;;4.90;;
70233;SDS011;57622;42.630;23.378;2022-07-22T05:07:35;14.10;;;5.30;;
70233;SDS011;57622;42.630;23.378;2022-07-22T05:10:01;9.82;;;4.72;;
70233;SDS011;57622;42.630;23.378;2022-07-22T05:12:26;11.68;;;5.22;;
70233;SDS011;57622;42.630;23.378;2022-07-22T05:14:51;10.00;;;5.30;;
70233;SDS011;57622;42.630;23.378;2022-07-22T05:17:17;10.02;;;4.78;;
70233;SDS011;57622;42.630;23.378;2022-07-22T05:19:42;12.90;;;5.70;;
70233;SDS011;57622;42.630;23.378;2022-07-22T05:22:08;10.77;;;5.30;;
70233;SDS011;57622;42.630;23.378;2022-07-22T05:24:34;13.60;;;5.70;;
70233;SDS011;57622;42.630;23.378;2022-07-22T05:27:00;12.60;;;5.47;;
70233;SDS011;57622;42.630;23.378;2022-07-22T05:29:25;13.30;;;5.60;;
70233;SDS011;57622;42.630;23.378;2022-07-22T05:31:51;10.63;;;5.57;;
70233;SDS011;57622;42.630;23.378;2022-07-22T05:34:16;13.88;;;5.70;;
70233;SDS011;57622;42.630;23.378;2022-07-22T05:36:41;14.65;;;5.80;;
70233;SDS011;57622;42.630;23.378;2022-07-22T05:39:07;15.75;;;6.43;;
70233;SDS011;57622;42.630;23.378;2022-07-22T05:41:32;18.77;;;5.78;;
70233;SDS011;57622;42.630;23.378;2022-07-22T05:43:58;12.85;;;5.68;;
70233;SDS011;57622;42.630;23.378;2022-07-22T05:46:24;13.25;;;5.50;;
70233;SDS011;57622;42.630;23.378;2022-07-22T05:48:49;13.63;;;6.18;;
70233;SDS011;57622;42.630;23.378;2022-07-22T05:51:15;11.90;;;5.45;;
70233;SDS011;57622;42.630;23.378;2022-07-22T05:53:41;15.43;;;5.60;;
70233;SDS011;57622;42.630;23.378;2022-07-22T05:56:08;13.98;;;6.07;;
70233;SDS011;57622;42.630;23.378;2022-07-22T05:58:36;12.07;;;6.23;;
70233;SDS011;57622;42.630;23.378;2022-07-22T06:01:04;12.43;;;5.80;;
70233;SDS011;57622;42.630;23.378;2022-07-22T06:03:30;11.70;;;6.07;;
70233;SDS011;57622;42.630;23.378;2022-07-22T06:05:56;14.65;;;6.43;;
70233;SDS011;57622;42.630;23.378;2022-07-22T06:08:21;15.13;;;6.00;;
70233;SDS011;57622;42.630;23.378;2022-07-22T06:10:47;12.77;;;5.50;;
70233;SDS011;57622;42.630;23.378;2022-07-22T06:13:12;14.27;;;6.22;;
70233;SDS011;57622;42.630;23.378;2022-07-22T06:15:38;14.10;;;5.78;;
70233;SDS011;57622;42.630;23.378;2022-07-22T06:18:03;15.48;;;6.60;;
70233;SDS011;57622;42.630;23.378;2022-07-22T06:20:29;15.75;;;5.95;;
70233;SDS011;57622;42.630;23.378;2022-07-22T06:22:54;17.38;;;6.18;;
70233;SDS011;57622;42.630;23.378;2022-07-22T06:25:20;14.35;;;6.45;;
70233;SDS011;57622;42.630;23.378;2022-07-22T06:27:45;13.95;;;5.75;;
70233;SDS011;57622;42.630;23.378;2022-07-22T06:30:11;19.95;;;7.20;;
70233;SDS011;57622;42.630;23.378;2022-07-22T06:32:37;20.70;;;5.63;;
70233;SDS011;57622;42.630;23.378;2022-07-22T06:35:02;12.95;;;6.00;;
70233;SDS011;57622;42.630;23.378;2022-07-22T06:37:28;16.30;;;5.97;;
70233;SDS011;57622;42.630;23.378;2022-07-22T06:39:53;16.95;;;6.38;;
70233;SDS011;57622;42.630;23.378;2022-07-22T06:42:19;15.38;;;6.45;;
70233;SDS011;57622;42.630;23.378;2022-07-22T06:44:44;14.70;;;6.50;;
70233;SDS011;57622;42.630;23.378;2022-07-22T06:47:10;16.10;;;6.85;;
70233;SDS011;57622;42.630;23.378;2022-07-22T06:49:35;16.50;;;6.65;;
70233;SDS011;57622;42.630;23.378;2022-07-22T06:52:00;16.27;;;6.80;;
70233;SDS011;57622;42.630;23.378;2022-07-22T06:54:26;17.30;;;6.38;;
70233;SDS011;57622;42.630;23.378;2022-07-22T06:56:52;16.50;;;6.10;;
70233;SDS011;57622;42.630;23.378;2022-07-22T06:59:18;19.75;;;6.20;;
70233;SDS011;57622;42.630;23.378;2022-07-22T07:01:43;14.57;;;5.85;;
70233;SDS011;57622;42.630;23.378;2022-07-22T07:04:09;14.10;;;6.20;;
70233;SDS011;57622;42.630;23.378;2022-07-22T07:06:34;14.10;;;5.88;;
70233;SDS011;57622;42.630;23.378;2022-07-22T07:09:00;15.63;;;6.05;;
70233;SDS011;57622;42.630;23.378;2022-07-22T07:11:25;12.40;;;5.85;;
70233;SDS011;57622;42.630;23.378;2022-07-22T07:13:51;14.85;;;5.75;;
70233;SDS011;57622;42.630;23.378;2022-07-22T07:16:17;17.48;;;6.05;;
70233;SDS011;57622;42.630;23.378;2022-07-22T07:18:42;14.98;;;5.60;;
70233;SDS011;57622;42.630;23.378;2022-07-22T07:21:08;15.05;;;5.55;;
70233;SDS011;57622;42.630;23.378;2022-07-22T07:23:33;13.38;;;5.50;;
70233;SDS011;57622;42.630;23.378;2022-07-22T07:25:59;13.20;;;5.38;;
70233;SDS011;57622;42.630;23.378;2022-07-22T07:28:24;14.43;;;5.63;;
70233;SDS011;57622;42.630;23.378;2022-07-22T07:30:49;11.82;;;5.00;;
70233;SDS011;57622;42.630;23.378;2022-07-22T07:33:15;13.52;;;5.00;;
70233;SDS011;57622;42.630;23.378;2022-07-22T07:35:40;14.55;;;5.43;;
70233;SDS011;57622;42.630;23.378;2022-07-22T07:38:06;12.40;;;4.80;;
70233;SDS011;57622;42.630;23.378;2022-07-22T07:40:32;12.95;;;5.05;;
70233;SDS011;57622;42.630;23.378;2022-07-22T07:42:57;16.30;;;4.70;;
70233;SDS011;57622;42.630;23.378;2022-07-22T07:45:23;12.68;;;4.95;;
70233;SDS011;57622;42.630;23.378;2022-07-22T07:47:48;17.95;;;5.00;;
70233;SDS011;57622;42.630;23.378;2022-07-22T07:50:16;12.57;;;5.25;;
70233;SDS011;57622;42.630;23.378;2022-07-22T07:52:42;14.02;;;5.20;;
70233;SDS011;57622;42.630;23.378;2022-07-22T07:55:14;15.45;;;4.97;;
70233;SDS011;57622;42.630;23.378;2022-07-22T07:57:43;13.38;;;4.57;;
70233;SDS011;57622;42.630;23.378;2022-07-22T08:00:10;18.55;;;5.28;;
70233;SDS011;57622;42.630;23.378;2022-07-22T08:02:36;11.32;;;4.30;;
70233;SDS011;57622;42.630;23.378;2022-07-22T08:05:02;12.23;;;4.90;;
70233;SDS011;57622;42.630;23.378;2022-07-22T08:07:28;13.88;;;4.15;;
70233;SDS011;57622;42.630;23.378;2022-07-22T08:09:54;13.68;;;4.25;;
70233;SDS011;57622;42.630;23.378;2022-07-22T08:12:20;10.02;;;4.25;;
70233;SDS011;57622;42.630;23.378;2022-07-22T08:14:45;9.20;;;4.38;;
70233;SDS011;57622;42.630;23.378;2022-07-22T08:17:11;11.98;;;4.22;;
70233;SDS011;57622;42.630;23.378;2022-07-22T08:19:37;8.95;;;4.05;;
70233;SDS011;57622;42.630;23.378;2022-07-22T08:22:05;10.20;;;4.32;;
70233;SDS011;57622;42.630;23.378;2022-07-22T08:24:31;12.73;;;4.15;;
70233;SDS011;57622;42.630;23.378;2022-07-22T08:26:56;13.20;;;4.40;;
70233;SDS011;57622;42.630;23.378;2022-07-22T08:29:22;12.18;;;4.10;;
70233;SDS011;57622;42.630;23.378;2022-07-22T08:31:48;12.25;;;4.45;;
70233;SDS011;57622;42.630;23.378;2022-07-22T08:34:13;9.70;;;4.28;;
70233;SDS011;57622;42.630;23.378;2022-07-22T08:36:39;12.07;;;4.15;;
70233;SDS011;57622;42.630;23.378;2022-07-22T08:39:12;14.52;;;4.22;;
70233;SDS011;57622;42.630;23.378;2022-07-22T08:41:38;9.73;;;3.90;;
70233;SDS011;57622;42.630;23.378;2022-07-22T08:44:09;10.52;;;4.40;;
70233;SDS011;57622;42.630;23.378;2022-07-22T08:46:38;11.73;;;4.25;;
70233;SDS011;57622;42.630;23.378;2022-07-22T08:49:06;10.23;;;4.13;;
70233;SDS011;57622;42.630;23.378;2022-07-22T08:51:31;9.75;;;4.25;;
70233;SDS011;57622;42.630;23.378;2022-07-22T08:53:59;10.57;;;4.45;;
70233;SDS011;57622;42.630;23.378;2022-07-22T08:56:25;9.80;;;4.00;;
70233;SDS011;57622;42.630;23.378;2022-07-22T08:58:50;11.25;;;3.90;;
70233;SDS011;57622;42.630;23.378;2022-07-22T09:01:16;11.52;;;4.15;;
70233;SDS011;57622;42.630;23.378;2022-07-22T09:06:12;11.63;;;4.00;;
70233;SDS011;57622;42.630;23.378;2022-07-22T09:11:26;10.40;;;3.72;;
70233;SDS011;57622;42.630;23.378;2022-07-22T09:13:56;10.65;;;3.60;;
70233;SDS011;57622;42.630;23.378;2022-07-22T09:16:42;8.65;;;4.13;;
70233;SDS011;57622;42.630;23.378;2022-07-22T09:19:10;9.30;;;3.88;;
70233;SDS011;57622;42.630;23.378;2022-07-22T09:21:38;9.63;;;3.95;;
70233;SDS011;57622;42.630;23.378;2022-07-22T09:26:56;9.60;;;4.00;;
70233;SDS011;57622;42.630;23.378;2022-07-22T09:29:22;9.93;;;4.35;;
70233;SDS011;57622;42.630;23.378;2022-07-22T09:31:51;11.35;;;4.05;;
70233;SDS011;57622;42.630;23.378;2022-07-22T09:34:30;11.60;;;3.83;;
70233;SDS011;57622;42.630;23.378;2022-07-22T09:36:59;12.45;;;4.00;;
70233;SDS011;57622;42.630;23.378;2022-07-22T09:39:26;13.02;;;3.80;;
70233;SDS011;57622;42.630;23.378;2022-07-22T09:41:56;10.10;;;4.22;;
70233;SDS011;57622;42.630;23.378;2022-07-22T09:44:23;11.48;;;3.90;;
70233;SDS011;57622;42.630;23.378;2022-07-22T09:46:48;8.80;;;4.13;;
70233;SDS011;57622;42.630;23.378;2022-07-22T09:49:29;10.88;;;4.15;;
70233;SDS011;57622;42.630;23.378;2022-07-22T09:51:58;12.18;;;4.20;;
70233;SDS011;57622;42.630;23.378;2022-07-22T09:54:25;8.97;;;4.10;;
70233;SDS011;57622;42.630;23.378;2022-07-22T09:56:53;10.67;;;4.00;;
70233;SDS011;57622;42.630;23.378;2022-07-22T09:59:18;11.00;;;4.07;;
70233;SDS011;57622;42.630;23.378;2022-07-22T10:01:44;10.02;;;4.00;;
70233;SDS011;57622;42.630;23.378;2022-07-22T10:04:11;10.55;;;4.28;;
70233;SDS011;57622;42.630;23.378;2022-07-22T10:06:39;8.52;;;3.85;;
70233;SDS011;57622;42.630;23.378;2022-07-22T10:09:07;8.85;;;4.28;;
70233;SDS011;57622;42.630;23.378;2022-07-22T10:11:33;8.88;;;3.90;;
70233;SDS011;57622;42.630;23.378;2022-07-22T10:14:02;10.27;;;4.00;;
70233;SDS011;57622;42.630;23.378;2022-07-22T10:16:29;11.70;;;4.07;;
70233;SDS011;57622;42.630;23.378;2022-07-22T10:18:55;15.07;;;4.10;;
70233;SDS011;57622;42.630;23.378;2022-07-22T10:21:30;8.75;;;3.67;;
70233;SDS011;57622;42.630;23.378;2022-07-22T10:24:07;10.15;;;4.03;;
70233;SDS011;57622;42.630;23.378;2022-07-22T10:26:48;10.13;;;4.03;;
70233;SDS011;57622;42.630;23.378;2022-07-22T10:45:19;10.18;;;4.10;;
70233;SDS011;57622;42.630;23.378;2022-07-22T10:47:52;9.25;;;4.38;;
70233;SDS011;57622;42.630;23.378;2022-07-22T10:53:06;11.25;;;4.10;;
70233;SDS011;57622;42.630;23.378;2022-07-22T11:01:00;10.75;;;4.20;;
70233;SDS011;57622;42.630;23.378;2022-07-22T11:03:29;15.80;;;4.30;;
70233;SDS011;57622;42.630;23.378;2022-07-22T11:05:56;9.63;;;4.35;;
70233;SDS011;57622;42.630;23.378;2022-07-22T11:08:37;11.60;;;4.07;;
70233;SDS011;57622;42.630;23.378;2022-07-22T11:11:02;11.05;;;4.10;;
70233;SDS011;57622;42.630;23.378;2022-07-22T11:13:32;7.78;;;4.07;;
70233;SDS011;57622;42.630;23.378;2022-07-22T11:18:50;10.32;;;4.00;;
70233;SDS011;57622;42.630;23.378;2022-07-22T11:21:21;10.05;;;3.80;;
70233;SDS011;57622;42.630;23.378;2022-07-22T11:23:49;12.50;;;4.70;;
70233;SDS011;57622;42.630;23.378;2022-07-22T11:28:43;10.68;;;4.30;;
70233;SDS011;57622;42.630;23.378;2022-07-22T11:31:10;10.32;;;4.22;;
70233;SDS011;57622;42.630;23.378;2022-07-22T11:33:40;10.48;;;4.10;;
70233;SDS011;57622;42.630;23.378;2022-07-22T11:36:06;8.70;;;4.35;;
70233;SDS011;57622;42.630;23.378;2022-07-22T11:38:46;9.35;;;4.40;;
70233;SDS011;57622;42.630;23.378;2022-07-22T11:41:16;10.38;;;4.10;;
70233;SDS011;57622;42.630;23.378;2022-07-22T11:43:49;12.90;;;4.20;;
70233;SDS011;57622;42.630;23.378;2022-07-22T11:46:16;13.90;;;4.05;;
70233;SDS011;57622;42.630;23.378;2022-07-22T11:48:43;11.55;;;4.55;;
70233;SDS011;57622;42.630;23.378;2022-07-22T11:51:10;9.00;;;3.90;;
70233;SDS011;57622;42.630;23.378;2022-07-22T11:53:37;15.20;;;4.85;;
70233;SDS011;57622;42.630;23.378;2022-07-22T11:56:04;11.93;;;4.40;;
70233;SDS011;57622;42.630;23.378;2022-07-22T11:58:37;11.70;;;4.22;;
70233;SDS011;57622;42.630;23.378;2022-07-22T12:01:07;14.40;;;4.30;;
70233;SDS011;57622;42.630;23.378;2022-07-22T12:03:37;8.73;;;3.90;;
70233;SDS011;57622;42.630;23.378;2022-07-22T12:06:08;13.43;;;4.00;;
70233;SDS011;57622;42.630;23.378;2022-07-22T12:08:39;10.43;;;3.85;;
70233;SDS011;57622;42.630;23.378;2022-07-22T12:11:07;14.05;;;4.03;;
70233;SDS011;57622;42.630;23.378;2022-07-22T12:13:33;9.93;;;3.67;;
70233;SDS011;57622;42.630;23.378;2022-07-22T12:15:59;9.98;;;3.80;;
70233;SDS011;57622;42.630;23.378;2022-07-22T12:18:25;9.80;;;3.83;;
70233;SDS011;57622;42.630;23.378;2022-07-22T12:20:52;10.40;;;4.40;;
70233;SDS011;57622;42.630;23.378;2022-07-22T12:23:19;11.20;;;4.15;;
70233;SDS011;57622;42.630;23.378;2022-07-22T12:26:04;12.32;;;5.45;;
70233;SDS011;57622;42.630;23.378;2022-07-22T12:28:29;12.05;;;3.78;;
70233;SDS011;57622;42.630;23.378;2022-07-22T12:30:55;12.95;;;4.40;;
70233;SDS011;57622;42.630;23.378;2022-07-22T12:33:22;11.55;;;4.50;;
70233;SDS011;57622;42.630;23.378;2022-07-22T12:36:04;10.70;;;4.00;;
70233;SDS011;57622;42.630;23.378;2022-07-22T12:38:32;11.40;;;4.30;;
70233;SDS011;57622;42.630;23.378;2022-07-22T12:43:49;10.90;;;5.15;;
70233;SDS011;57622;42.630;23.378;2022-07-22T12:46:15;12.85;;;4.30;;
70233;SDS011;57622;42.630;23.378;2022-07-22T12:48:51;13.18;;;4.50;;
70233;SDS011;57622;42.630;23.378;2022-07-22T12:51:18;11.38;;;4.10;;
70233;SDS011;57622;42.630;23.378;2022-07-22T12:53:43;9.48;;;3.90;;
70233;SDS011;57622;42.630;23.378;2022-07-22T12:56:09;12.52;;;3.85;;
70233;SDS011;57622;42.630;23.378;2022-07-22T12:58:35;13.48;;;4.47;;
70233;SDS011;57622;42.630;23.378;2022-07-22T13:01:03;12.00;;;4.38;;
70233;SDS011;57622;42.630;23.378;2022-07-22T13:03:29;9.80;;;4.22;;
70233;SDS011;57622;42.630;23.378;2022-07-22T13:06:02;11.45;;;4.13;;
70233;SDS011;57622;42.630;23.378;2022-07-22T13:08:29;9.77;;;4.18;;
70233;SDS011;57622;42.630;23.378;2022-07-22T13:10:55;8.60;;;3.67;;
70233;SDS011;57622;42.630;23.378;2022-07-22T13:13:21;9.90;;;3.70;;
70233;SDS011;57622;42.630;23.378;2022-07-22T13:15:47;13.32;;;3.97;;
70233;SDS011;57622;42.630;23.378;2022-07-22T13:18:13;10.88;;;3.67;;
70233;SDS011;57622;42.630;23.378;2022-07-22T13:20:39;12.52;;;3.80;;
70233;SDS011;57622;42.630;23.378;2022-07-22T13:23:04;9.20;;;3.78;;
70233;SDS011;57622;42.630;23.378;2022-07-22T13:25:30;8.27;;;3.63;;
70233;SDS011;57622;42.630;23.378;2022-07-22T13:27:57;9.60;;;3.47;;
70233;SDS011;57622;42.630;23.378;2022-07-22T13:30:24;9.88;;;3.97;;
70233;SDS011;57622;42.630;23.378;2022-07-22T13:32:50;13.18;;;4.95;;
70233;SDS011;57622;42.630;23.378;2022-07-22T13:35:16;9.27;;;4.35;;
70233;SDS011;57622;42.630;23.378;2022-07-22T13:37:42;11.60;;;4.55;;
70233;SDS011;57622;42.630;23.378;2022-07-22T13:40:08;10.75;;;4.13;;
70233;SDS011;57622;42.630;23.378;2022-07-22T13:42:34;9.77;;;3.67;;
70233;SDS011;57622;42.630;23.378;2022-07-22T13:44:59;11.40;;;4.50;;
70233;SDS011;57622;42.630;23.378;2022-07-22T13:47:25;13.13;;;5.20;;
70233;SDS011;57622;42.630;23.378;2022-07-22T13:49:52;10.88;;;4.10;;
70233;SDS011;57622;42.630;23.378;2022-07-22T13:52:18;9.55;;;3.80;;
70233;SDS011;57622;42.630;23.378;2022-07-22T13:54:43;9.43;;;4.22;;
70233;SDS011;57622;42.630;23.378;2022-07-22T13:57:10;11.40;;;4.50;;
70233;SDS011;57622;42.630;23.378;2022-07-22T13:59:36;10.38;;;4.03;;
70233;SDS011;57622;42.630;23.378;2022-07-22T14:02:02;9.18;;;4.20;;
70233;SDS011;57622;42.630;23.378;2022-07-22T14:04:28;8.63;;;3.55;;
70233;SDS011;57622;42.630;23.378;2022-07-22T14:06:53;12.50;;;4.28;;
70233;SDS011;57622;42.630;23.378;2022-07-22T14:09:19;8.85;;;3.70;;
70233;SDS011;57622;42.630;23.378;2022-07-22T14:11:45;12.07;;;4.10;;
70233;SDS011;57622;42.630;23.378;2022-07-22T14:14:10;8.57;;;4.07;;
70233;SDS011;57622;42.630;23.378;2022-07-22T14:16:36;14.18;;;4.03;;
70233;SDS011;57622;42.630;23.378;2022-07-22T14:19:05;10.02;;;4.32;;
70233;SDS011;57622;42.630;23.378;2022-07-22T14:21:39;12.05;;;3.72;;
70233;SDS011;57622;42.630;23.378;2022-07-22T14:26:32;10.30;;;3.75;;
70233;SDS011;57622;42.630;23.378;2022-07-22T14:28:58;12.68;;;4.50;;
70233;SDS011;57622;42.630;23.378;2022-07-22T14:31:24;12.65;;;3.88;;
70233;SDS011;57622;42.630;23.378;2022-07-22T14:33:50;11.38;;;3.45;;
70233;SDS011;57622;42.630;23.378;2022-07-22T14:36:16;8.00;;;3.50;;
70233;SDS011;57622;42.630;23.378;2022-07-22T14:38:42;10.07;;;3.38;;
70233;SDS011;57622;42.630;23.378;2022-07-22T14:41:07;7.80;;;3.45;;
70233;SDS011;57622;42.630;23.378;2022-07-22T14:43:33;11.57;;;3.90;;
70233;SDS011;57622;42.630;23.378;2022-07-22T14:46:00;13.45;;;5.22;;
70233;SDS011;57622;42.630;23.378;2022-07-22T14:48:26;13.73;;;4.60;;
70233;SDS011;57622;42.630;23.378;2022-07-22T14:50:53;8.35;;;3.42;;
70233;SDS011;57622;42.630;23.378;2022-07-22T14:53:18;10.40;;;3.67;;
70233;SDS011;57622;42.630;23.378;2022-07-22T14:55:44;11.55;;;3.38;;
70233;SDS011;57622;42.630;23.378;2022-07-22T14:58:09;8.10;;;3.70;;
70233;SDS011;57622;42.630;23.378;2022-07-22T15:00:35;10.85;;;6.15;;
70233;SDS011;57622;42.630;23.378;2022-07-22T15:03:00;8.95;;;3.83;;
70233;SDS011;57622;42.630;23.378;2022-07-22T15:05:26;14.60;;;4.85;;